SUR4097 SASA-SACO
Flight info
| Callsign | SUR4097 |
|---|---|
| Flight time | 1h 5m |
| Altitude | 39000 |
| Route | PONPI4J PONPI UN525 DONKA DONKA2X |
| Aircraft | A20N/M-SDE2E3FGHIRWXY/LB1 |
Departure
| Time | 2026-04-25 23:09 |
|---|---|
| Airport | Martín Miguel de Güemes International Airport (SASA) |
Arrival
| Time | 2026-04-26 00:15 |
|---|---|
| Airport | Ingeniero Aeronáutico Ambrosio L.V. Taravella International Airport (SACO) |
| Time | Latitude | Longitude | Altitude | Speed | Heading |
|---|---|---|---|---|---|
| 2026-04-25 22:47 | -24.84512 | -65.47796 | 4093 ft | 0 kts | 20° |
| 2026-04-25 22:58 | -24.84515 | -65.47797 | 4094 ft | 2 kts | 21° |
| 2026-04-25 22:58 | -24.84529 | -65.47803 | 4094 ft | 2 kts | 20° |
| 2026-04-25 22:58 | -24.84541 | -65.47807 | 4094 ft | 1 kts | 49° |
| 2026-04-25 22:59 | -24.84544 | -65.47820 | 4094 ft | 1 kts | 109° |
| 2026-04-25 22:59 | -24.84537 | -65.47835 | 4094 ft | 2 kts | 112° |
| 2026-04-25 22:59 | -24.84532 | -65.47849 | 4094 ft | 0 kts | 112° |
| 2026-04-25 22:59 | -24.84531 | -65.47850 | 4094 ft | 0 kts | 114° |
| 2026-04-25 23:03 | -24.84534 | -65.47842 | 4093 ft | 2 kts | 114° |
| 2026-04-25 23:03 | -24.84546 | -65.47815 | 4093 ft | 5 kts | 113° |
| 2026-04-25 23:03 | -24.84580 | -65.47781 | 4093 ft | 8 kts | 154° |
| 2026-04-25 23:04 | -24.84643 | -65.47751 | 4093 ft | 11 kts | 157° |
| 2026-04-25 23:04 | -24.84724 | -65.47714 | 4093 ft | 13 kts | 156° |
| 2026-04-25 23:04 | -24.84807 | -65.47675 | 4093 ft | 12 kts | 156° |
| 2026-04-25 23:04 | -24.84859 | -65.47651 | 4093 ft | 7 kts | 169° |
| 2026-04-25 23:05 | -24.84909 | -65.47685 | 4093 ft | 10 kts | 231° |
| 2026-04-25 23:05 | -24.84959 | -65.47759 | 4093 ft | 13 kts | 233° |
| 2026-04-25 23:05 | -24.85020 | -65.47846 | 4093 ft | 15 kts | 231° |
| 2026-04-25 23:05 | -24.85093 | -65.47946 | 4093 ft | 17 kts | 231° |
| 2026-04-25 23:06 | -24.85173 | -65.48058 | 4093 ft | 19 kts | 232° |
| 2026-04-25 23:06 | -24.85259 | -65.48181 | 4093 ft | 20 kts | 233° |
| 2026-04-25 23:06 | -24.85348 | -65.48308 | 4093 ft | 20 kts | 232° |
| 2026-04-25 23:06 | -24.85437 | -65.48433 | 4093 ft | 20 kts | 232° |
| 2026-04-25 23:07 | -24.85521 | -65.48551 | 4093 ft | 19 kts | 232° |
| 2026-04-25 23:07 | -24.85603 | -65.48668 | 4093 ft | 19 kts | 232° |
| 2026-04-25 23:07 | -24.85678 | -65.48775 | 4093 ft | 16 kts | 232° |
| 2026-04-25 23:07 | -24.85739 | -65.48859 | 4093 ft | 9 kts | 232° |
| 2026-04-25 23:08 | -24.85767 | -65.48914 | 4093 ft | 8 kts | 246° |
| 2026-04-25 23:08 | -24.85786 | -65.48955 | 4093 ft | 4 kts | 212° |
| 2026-04-25 23:08 | -24.85794 | -65.48939 | 4093 ft | 2 kts | 52° |
| 2026-04-25 23:08 | -24.85733 | -65.48850 | 4093 ft | 45 kts | 52° |
| 2026-04-25 23:09 | -24.85384 | -65.48357 | 4094 ft | 115 kts | 52° |
| 2026-04-25 23:09 | -24.84782 | -65.47497 | 4144 ft | 163 kts | 54° |
| 2026-04-25 23:09 | -24.84094 | -65.46503 | 4727 ft | 164 kts | 53° |
| 2026-04-25 23:09 | -24.83399 | -65.45500 | 5345 ft | 168 kts | 53° |
| 2026-04-25 23:10 | -24.82692 | -65.44479 | 5985 ft | 170 kts | 53° |
| 2026-04-25 23:10 | -24.81954 | -65.43412 | 6385 ft | 183 kts | 53° |
| 2026-04-25 23:10 | -24.81150 | -65.42248 | 6779 ft | 198 kts | 53° |
| 2026-04-25 23:10 | -24.80295 | -65.41009 | 7200 ft | 211 kts | 53° |
| 2026-04-25 23:11 | -24.79364 | -65.39676 | 7648 ft | 227 kts | 52° |
| 2026-04-25 23:11 | -24.78376 | -65.38289 | 8231 ft | 236 kts | 52° |
| 2026-04-25 23:11 | -24.77404 | -65.36832 | 8933 ft | 239 kts | 62° |
| 2026-04-25 23:11 | -24.77098 | -65.35049 | 9661 ft | 242 kts | 100° |
| 2026-04-25 23:12 | -24.77492 | -65.33914 | 10169 ft | 243 kts | 124° |
| 2026-04-25 23:12 | -24.79298 | -65.32523 | 11041 ft | 248 kts | 169° |
| 2026-04-25 23:12 | -24.80998 | -65.32683 | 11664 ft | 251 kts | 206° |
| 2026-04-25 23:12 | -24.82308 | -65.33895 | 12271 ft | 251 kts | 241° |
| 2026-04-25 23:13 | -24.82823 | -65.35691 | 12884 ft | 251 kts | 261° |
| 2026-04-25 23:13 | -24.83139 | -65.37611 | 13420 ft | 256 kts | 259° |
| 2026-04-25 23:13 | -24.83497 | -65.39532 | 13991 ft | 260 kts | 259° |
| 2026-04-25 23:13 | -24.83866 | -65.41429 | 14640 ft | 261 kts | 259° |
| 2026-04-25 23:14 | -24.84243 | -65.43356 | 15314 ft | 261 kts | 259° |
| 2026-04-25 23:14 | -24.84639 | -65.45303 | 15954 ft | 262 kts | 255° |
| 2026-04-25 23:14 | -24.85545 | -65.47032 | 16560 ft | 268 kts | 223° |
| 2026-04-25 23:14 | -24.87214 | -65.47936 | 17166 ft | 278 kts | 192° |
| 2026-04-25 23:15 | -24.89194 | -65.47822 | 17542 ft | 295 kts | 173° |
| 2026-04-25 23:15 | -24.91264 | -65.47389 | 17789 ft | 310 kts | 173° |
| 2026-04-25 23:15 | -24.93442 | -65.46955 | 18052 ft | 325 kts | 174° |
| 2026-04-25 23:15 | -24.95738 | -65.46512 | 18268 ft | 340 kts | 174° |
| 2026-04-25 23:16 | -24.98126 | -65.46059 | 18536 ft | 355 kts | 174° |
| 2026-04-25 23:16 | -25.00615 | -65.45592 | 18780 ft | 369 kts | 174° |
| 2026-04-25 23:16 | -25.03219 | -65.45106 | 18981 ft | 383 kts | 174° |
| 2026-04-25 23:16 | -25.05916 | -65.44604 | 19232 ft | 395 kts | 174° |
| 2026-04-25 23:17 | -25.08658 | -65.44091 | 19617 ft | 403 kts | 174° |
| 2026-04-25 23:17 | -25.11483 | -65.43561 | 20101 ft | 406 kts | 175° |
| 2026-04-25 23:17 | -25.14219 | -65.43048 | 20610 ft | 409 kts | 175° |
| 2026-04-25 23:17 | -25.16438 | -65.42633 | 21006 ft | 411 kts | 175° |
| 2026-04-25 23:18 | -25.19011 | -65.42152 | 21452 ft | 413 kts | 176° |
| 2026-04-25 23:18 | -25.21895 | -65.41614 | 21950 ft | 416 kts | 176° |
| 2026-04-25 23:18 | -25.24737 | -65.41084 | 22415 ft | 420 kts | 176° |
| 2026-04-25 23:18 | -25.27626 | -65.40546 | 22894 ft | 423 kts | 176° |
| 2026-04-25 23:19 | -25.30573 | -65.39999 | 23378 ft | 427 kts | 177° |
| 2026-04-25 23:19 | -25.33535 | -65.39449 | 23883 ft | 430 kts | 176° |
| 2026-04-25 23:19 | -25.36478 | -65.38902 | 24369 ft | 433 kts | 176° |
| 2026-04-25 23:19 | -25.39466 | -65.38342 | 24861 ft | 436 kts | 176° |
| 2026-04-25 23:20 | -25.42493 | -65.37777 | 25362 ft | 438 kts | 176° |
| 2026-04-25 23:20 | -25.45536 | -65.37206 | 25838 ft | 441 kts | 177° |
| 2026-04-25 23:20 | -25.48583 | -65.36637 | 26311 ft | 444 kts | 176° |
| 2026-04-25 23:20 | -25.51678 | -65.36058 | 26776 ft | 447 kts | 176° |
| 2026-04-25 23:21 | -25.54772 | -65.35477 | 27235 ft | 450 kts | 177° |
| 2026-04-25 23:21 | -25.57882 | -65.34892 | 27665 ft | 453 kts | 177° |
| 2026-04-25 23:21 | -25.61035 | -65.34301 | 28094 ft | 456 kts | 177° |
| 2026-04-25 23:21 | -25.64215 | -65.33703 | 28525 ft | 458 kts | 177° |
| 2026-04-25 23:22 | -25.67351 | -65.33113 | 28950 ft | 460 kts | 177° |
| 2026-04-25 23:22 | -25.70500 | -65.32519 | 29461 ft | 460 kts | 177° |
| 2026-04-25 23:22 | -25.73668 | -65.31921 | 30001 ft | 458 kts | 178° |
| 2026-04-25 23:23 | -25.79916 | -65.30743 | 31064 ft | 452 kts | 178° |
| 2026-04-25 23:23 | -25.83041 | -65.30157 | 31525 ft | 451 kts | 178° |
| 2026-04-25 23:23 | -25.86119 | -65.29579 | 31927 ft | 451 kts | 178° |
| 2026-04-25 23:23 | -25.89264 | -65.28988 | 32377 ft | 449 kts | 179° |
| 2026-04-25 23:24 | -25.92363 | -65.28404 | 32809 ft | 447 kts | 179° |
| 2026-04-25 23:24 | -25.95435 | -65.27825 | 33235 ft | 446 kts | 179° |
| 2026-04-25 23:24 | -25.98497 | -65.27250 | 33679 ft | 445 kts | 179° |
| 2026-04-25 23:24 | -26.01595 | -65.26666 | 34101 ft | 444 kts | 179° |
| 2026-04-25 23:25 | -26.04651 | -65.26090 | 34512 ft | 443 kts | 179° |
| 2026-04-25 23:25 | -26.07671 | -65.25518 | 34920 ft | 442 kts | 179° |
| 2026-04-25 23:25 | -26.10747 | -65.24936 | 35323 ft | 441 kts | 179° |
| 2026-04-25 23:25 | -26.13798 | -65.24358 | 35682 ft | 440 kts | 179° |
| 2026-04-25 23:26 | -26.16830 | -65.23785 | 36026 ft | 439 kts | 179° |
| 2026-04-25 23:26 | -26.19866 | -65.23211 | 36368 ft | 438 kts | 179° |
| 2026-04-25 23:26 | -26.22896 | -65.22636 | 36696 ft | 438 kts | 179° |
| 2026-04-25 23:26 | -26.25942 | -65.22059 | 36988 ft | 438 kts | 179° |
| 2026-04-25 23:27 | -26.28931 | -65.21492 | 37254 ft | 438 kts | 179° |
| 2026-04-25 23:27 | -26.31982 | -65.20911 | 37514 ft | 438 kts | 179° |
| 2026-04-25 23:27 | -26.35004 | -65.20338 | 37709 ft | 439 kts | 180° |
| 2026-04-25 23:27 | -26.38056 | -65.19759 | 37927 ft | 440 kts | 180° |
| 2026-04-25 23:28 | -26.41087 | -65.19184 | 38139 ft | 440 kts | 180° |
| 2026-04-25 23:28 | -26.44093 | -65.18611 | 38329 ft | 441 kts | 180° |
| 2026-04-25 23:28 | -26.47126 | -65.18034 | 38520 ft | 441 kts | 180° |
| 2026-04-25 23:28 | -26.50184 | -65.17453 | 38686 ft | 442 kts | 180° |
| 2026-04-25 23:29 | -26.53247 | -65.16869 | 38867 ft | 443 kts | 180° |
| 2026-04-25 23:29 | -26.56325 | -65.16282 | 39050 ft | 444 kts | 180° |
| 2026-04-25 23:29 | -26.59396 | -65.15696 | 39064 ft | 445 kts | 180° |
| 2026-04-25 23:30 | -26.65548 | -65.14520 | 39045 ft | 444 kts | 180° |
| 2026-04-25 23:30 | -26.71671 | -65.13348 | 39042 ft | 445 kts | 180° |
| 2026-04-25 23:31 | -26.77727 | -65.12186 | 39030 ft | 444 kts | 180° |
| 2026-04-25 23:31 | -26.83872 | -65.11008 | 39026 ft | 444 kts | 180° |
| 2026-04-25 23:32 | -26.90040 | -65.09820 | 39023 ft | 446 kts | 180° |
| 2026-04-25 23:32 | -26.96154 | -65.08632 | 39019 ft | 445 kts | 180° |
| 2026-04-25 23:33 | -27.02294 | -65.07435 | 39017 ft | 442 kts | 180° |
| 2026-04-25 23:33 | -27.08368 | -65.06252 | 39019 ft | 443 kts | 181° |
| 2026-04-25 23:34 | -27.14473 | -65.05061 | 39014 ft | 444 kts | 181° |
| 2026-04-25 23:34 | -27.20549 | -65.03874 | 39008 ft | 443 kts | 181° |
| 2026-04-25 23:35 | -27.26676 | -65.02679 | 39027 ft | 444 kts | 181° |
| 2026-04-25 23:35 | -27.32803 | -65.01477 | 39025 ft | 445 kts | 181° |
| 2026-04-25 23:36 | -27.38941 | -65.00275 | 39022 ft | 446 kts | 181° |
| 2026-04-25 23:36 | -27.45066 | -64.99072 | 39016 ft | 446 kts | 181° |
| 2026-04-25 23:37 | -27.51186 | -64.97868 | 39019 ft | 446 kts | 182° |
| 2026-04-25 23:37 | -27.57367 | -64.96651 | 39018 ft | 445 kts | 182° |
| 2026-04-25 23:38 | -27.63488 | -64.95447 | 39021 ft | 446 kts | 182° |
| 2026-04-25 23:38 | -27.69687 | -64.94222 | 39027 ft | 449 kts | 182° |
| 2026-04-25 23:39 | -27.75873 | -64.93004 | 39019 ft | 448 kts | 182° |
| 2026-04-25 23:39 | -27.82025 | -64.91869 | 39025 ft | 446 kts | 184° |
| 2026-04-25 23:40 | -27.88172 | -64.90746 | 39019 ft | 447 kts | 183° |
| 2026-04-25 23:40 | -27.94351 | -64.89610 | 39028 ft | 448 kts | 184° |
| 2026-04-25 23:41 | -28.00562 | -64.88461 | 39011 ft | 448 kts | 184° |
| 2026-04-25 23:41 | -28.06750 | -64.87317 | 39009 ft | 448 kts | 184° |
| 2026-04-25 23:42 | -28.12930 | -64.86173 | 39011 ft | 450 kts | 184° |
| 2026-04-25 23:42 | -28.19138 | -64.85018 | 39012 ft | 449 kts | 184° |
| 2026-04-25 23:43 | -28.25307 | -64.83868 | 39002 ft | 447 kts | 184° |
| 2026-04-25 23:43 | -28.31463 | -64.82722 | 39005 ft | 446 kts | 184° |
| 2026-04-25 23:44 | -28.37620 | -64.81579 | 39004 ft | 447 kts | 184° |
| 2026-04-25 23:44 | -28.43784 | -64.80428 | 39002 ft | 449 kts | 184° |
| 2026-04-25 23:45 | -28.49984 | -64.79269 | 38997 ft | 449 kts | 184° |
| 2026-04-25 23:45 | -28.56186 | -64.78108 | 38996 ft | 449 kts | 184° |
| 2026-04-25 23:46 | -28.62425 | -64.76936 | 38995 ft | 450 kts | 185° |
| 2026-04-25 23:46 | -28.68656 | -64.75661 | 38991 ft | 452 kts | 183° |
| 2026-04-25 23:47 | -28.74851 | -64.74313 | 38985 ft | 453 kts | 183° |
| 2026-04-25 23:47 | -28.81061 | -64.72966 | 38979 ft | 452 kts | 183° |
| 2026-04-25 23:48 | -28.87265 | -64.71625 | 38986 ft | 453 kts | 184° |
| 2026-04-25 23:48 | -28.93444 | -64.70290 | 38976 ft | 453 kts | 184° |
| 2026-04-25 23:49 | -28.99647 | -64.68948 | 38976 ft | 453 kts | 184° |
| 2026-04-25 23:49 | -29.05856 | -64.67602 | 38970 ft | 452 kts | 184° |
| 2026-04-25 23:50 | -29.12122 | -64.66243 | 38964 ft | 453 kts | 184° |
| 2026-04-25 23:50 | -29.15244 | -64.65569 | 38394 ft | 456 kts | 184° |
| 2026-04-25 23:50 | -29.18410 | -64.64882 | 37725 ft | 456 kts | 184° |
| 2026-04-25 23:50 | -29.21550 | -64.64200 | 37019 ft | 456 kts | 184° |
| 2026-04-25 23:51 | -29.24691 | -64.63517 | 36265 ft | 457 kts | 184° |
| 2026-04-25 23:51 | -29.27797 | -64.62843 | 35484 ft | 459 kts | 184° |
| 2026-04-25 23:51 | -29.30969 | -64.62153 | 34737 ft | 460 kts | 184° |
| 2026-04-25 23:51 | -29.34104 | -64.61467 | 34045 ft | 459 kts | 184° |
| 2026-04-25 23:52 | -29.37257 | -64.60776 | 33403 ft | 457 kts | 184° |
| 2026-04-25 23:52 | -29.40356 | -64.60097 | 32801 ft | 455 kts | 184° |
| 2026-04-25 23:52 | -29.43464 | -64.59422 | 32168 ft | 457 kts | 184° |
| 2026-04-25 23:52 | -29.46611 | -64.58744 | 31485 ft | 459 kts | 183° |
| 2026-04-25 23:53 | -29.49743 | -64.58067 | 30774 ft | 462 kts | 182° |
| 2026-04-25 23:53 | -29.52910 | -64.57377 | 30055 ft | 465 kts | 182° |
| 2026-04-25 23:53 | -29.56123 | -64.56676 | 29242 ft | 470 kts | 181° |
| 2026-04-25 23:53 | -29.59342 | -64.55973 | 28513 ft | 471 kts | 180° |
| 2026-04-25 23:54 | -29.62534 | -64.55309 | 28046 ft | 463 kts | 181° |
| 2026-04-25 23:54 | -29.65707 | -64.54704 | 27601 ft | 456 kts | 182° |
| 2026-04-25 23:54 | -29.68828 | -64.54123 | 27146 ft | 450 kts | 182° |
| 2026-04-25 23:54 | -29.71878 | -64.53556 | 26710 ft | 445 kts | 182° |
| 2026-04-25 23:55 | -29.74953 | -64.52979 | 26235 ft | 440 kts | 181° |
| 2026-04-25 23:55 | -29.77955 | -64.52415 | 25796 ft | 435 kts | 181° |
| 2026-04-25 23:55 | -29.80925 | -64.51853 | 25383 ft | 429 kts | 181° |
| 2026-04-25 23:55 | -29.83849 | -64.51299 | 24919 ft | 426 kts | 181° |
| 2026-04-25 23:56 | -29.86750 | -64.50750 | 24476 ft | 421 kts | 181° |
| 2026-04-25 23:56 | -29.89636 | -64.50201 | 24070 ft | 415 kts | 180° |
| 2026-04-25 23:56 | -29.92475 | -64.49660 | 23655 ft | 410 kts | 180° |
| 2026-04-25 23:56 | -29.95271 | -64.49123 | 23246 ft | 406 kts | 180° |
| 2026-04-25 23:57 | -29.98076 | -64.48538 | 22815 ft | 403 kts | 179° |
| 2026-04-25 23:57 | -30.00655 | -64.47985 | 22399 ft | 400 kts | 179° |
| 2026-04-25 23:57 | -30.03155 | -64.47449 | 21974 ft | 397 kts | 179° |
| 2026-04-25 23:57 | -30.05878 | -64.46865 | 21513 ft | 394 kts | 179° |
| 2026-04-25 23:58 | -30.08564 | -64.46289 | 21033 ft | 392 kts | 179° |
| 2026-04-25 23:58 | -30.11269 | -64.45713 | 20549 ft | 390 kts | 179° |
| 2026-04-25 23:58 | -30.13969 | -64.45139 | 20064 ft | 388 kts | 178° |
| 2026-04-25 23:58 | -30.16580 | -64.44581 | 19614 ft | 385 kts | 178° |
| 2026-04-25 23:59 | -30.19242 | -64.44009 | 19163 ft | 382 kts | 178° |
| 2026-04-25 23:59 | -30.21866 | -64.43449 | 18703 ft | 379 kts | 178° |
| 2026-04-25 23:59 | -30.24457 | -64.42896 | 18224 ft | 378 kts | 178° |
| 2026-04-25 23:59 | -30.27036 | -64.42346 | 17747 ft | 376 kts | 177° |
| 2026-04-26 00:00 | -30.30447 | -64.41615 | 17149 ft | 372 kts | 177° |
| 2026-04-26 00:00 | -30.32129 | -64.41254 | 16856 ft | 370 kts | 176° |
| 2026-04-26 00:00 | -30.34659 | -64.40711 | 16427 ft | 366 kts | 176° |
| 2026-04-26 00:00 | -30.37156 | -64.40176 | 15992 ft | 363 kts | 176° |
| 2026-04-26 00:01 | -30.39616 | -64.39523 | 15576 ft | 364 kts | 168° |
| 2026-04-26 00:01 | -30.41949 | -64.38337 | 15156 ft | 368 kts | 156° |
| 2026-04-26 00:01 | -30.44098 | -64.36649 | 14726 ft | 370 kts | 149° |
| 2026-04-26 00:01 | -30.46131 | -64.34830 | 14296 ft | 368 kts | 147° |
| 2026-04-26 00:02 | -30.48138 | -64.33002 | 13861 ft | 365 kts | 147° |
| 2026-04-26 00:02 | -30.50131 | -64.31194 | 13435 ft | 361 kts | 147° |
| 2026-04-26 00:02 | -30.52102 | -64.29417 | 13022 ft | 357 kts | 147° |
| 2026-04-26 00:02 | -30.54043 | -64.27678 | 12573 ft | 355 kts | 147° |
| 2026-04-26 00:03 | -30.55997 | -64.25931 | 12128 ft | 352 kts | 146° |
| 2026-04-26 00:03 | -30.57948 | -64.24216 | 11665 ft | 348 kts | 150° |
| 2026-04-26 00:03 | -30.60105 | -64.23016 | 11184 ft | 339 kts | 167° |
| 2026-04-26 00:03 | -30.62400 | -64.22594 | 10720 ft | 332 kts | 180° |
| 2026-04-26 00:04 | -30.64669 | -64.22505 | 10447 ft | 322 kts | 181° |
| 2026-04-26 00:04 | -30.66887 | -64.22447 | 10291 ft | 309 kts | 181° |
| 2026-04-26 00:04 | -30.69002 | -64.22388 | 10147 ft | 297 kts | 181° |
| 2026-04-26 00:04 | -30.71024 | -64.22327 | 10000 ft | 286 kts | 181° |
| 2026-04-26 00:05 | -30.72993 | -64.22267 | 9696 ft | 281 kts | 181° |
| 2026-04-26 00:05 | -30.74952 | -64.22204 | 9373 ft | 279 kts | 181° |
| 2026-04-26 00:05 | -30.76895 | -64.22137 | 9036 ft | 277 kts | 181° |
| 2026-04-26 00:05 | -30.78820 | -64.22072 | 8707 ft | 275 kts | 180° |
| 2026-04-26 00:06 | -30.80714 | -64.22007 | 8397 ft | 273 kts | 180° |
| 2026-04-26 00:06 | -30.82631 | -64.21940 | 8080 ft | 271 kts | 180° |
| 2026-04-26 00:06 | -30.84487 | -64.21873 | 7774 ft | 269 kts | 180° |
| 2026-04-26 00:06 | -30.86365 | -64.21808 | 7469 ft | 267 kts | 180° |
| 2026-04-26 00:07 | -30.88223 | -64.21744 | 7162 ft | 265 kts | 180° |
| 2026-04-26 00:07 | -30.90053 | -64.21681 | 6843 ft | 264 kts | 180° |
| 2026-04-26 00:07 | -30.91896 | -64.21615 | 6535 ft | 263 kts | 180° |
| 2026-04-26 00:07 | -30.93715 | -64.21549 | 6301 ft | 258 kts | 180° |
| 2026-04-26 00:08 | -30.95478 | -64.21484 | 6206 ft | 246 kts | 180° |
| 2026-04-26 00:08 | -30.97149 | -64.21426 | 6121 ft | 235 kts | 180° |
| 2026-04-26 00:08 | -30.98780 | -64.21372 | 5987 ft | 231 kts | 181° |
| 2026-04-26 00:08 | -31.00389 | -64.21344 | 5737 ft | 231 kts | 181° |
| 2026-04-26 00:09 | -31.01986 | -64.21324 | 5496 ft | 229 kts | 181° |
| 2026-04-26 00:09 | -31.03583 | -64.21304 | 5259 ft | 228 kts | 181° |
| 2026-04-26 00:09 | -31.05164 | -64.21279 | 5044 ft | 224 kts | 180° |
| 2026-04-26 00:09 | -31.06736 | -64.21253 | 5004 ft | 223 kts | 180° |
| 2026-04-26 00:10 | -31.08279 | -64.21227 | 5000 ft | 222 kts | 180° |
| 2026-04-26 00:10 | -31.09799 | -64.21197 | 4880 ft | 216 kts | 181° |
| 2026-04-26 00:10 | -31.11314 | -64.21173 | 4608 ft | 215 kts | 180° |
| 2026-04-26 00:10 | -31.12808 | -64.21148 | 4380 ft | 211 kts | 181° |
| 2026-04-26 00:11 | -31.14254 | -64.21123 | 4273 ft | 201 kts | 180° |
| 2026-04-26 00:11 | -31.15639 | -64.21100 | 4175 ft | 200 kts | 180° |
| 2026-04-26 00:11 | -31.17030 | -64.21068 | 4016 ft | 200 kts | 180° |
| 2026-04-26 00:11 | -31.18392 | -64.21038 | 3844 ft | 191 kts | 181° |
| 2026-04-26 00:12 | -31.19727 | -64.21014 | 3562 ft | 188 kts | 181° |
| 2026-04-26 00:12 | -31.21030 | -64.20995 | 3289 ft | 185 kts | 180° |
| 2026-04-26 00:12 | -31.22281 | -64.20974 | 3028 ft | 175 kts | 180° |
| 2026-04-26 00:12 | -31.23455 | -64.20955 | 2809 ft | 161 kts | 180° |
| 2026-04-26 00:13 | -31.24539 | -64.20937 | 2564 ft | 149 kts | 179° |
| 2026-04-26 00:13 | -31.25544 | -64.20921 | 2281 ft | 141 kts | 179° |
| 2026-04-26 00:13 | -31.26509 | -64.20909 | 2068 ft | 133 kts | 179° |
| 2026-04-26 00:13 | -31.27440 | -64.20898 | 2022 ft | 133 kts | 179° |
| 2026-04-26 00:14 | -31.28364 | -64.20882 | 1795 ft | 131 kts | 177° |
| 2026-04-26 00:14 | -31.29281 | -64.20863 | 1687 ft | 131 kts | 179° |
| 2026-04-26 00:14 | -31.30177 | -64.20850 | 1614 ft | 121 kts | 178° |
| 2026-04-26 00:14 | -31.30882 | -64.20837 | 1613 ft | 76 kts | 180° |
| 2026-04-26 00:15 | -31.31243 | -64.20830 | 1613 ft | 26 kts | 179° |
| 2026-04-26 00:15 | -31.31343 | -64.20828 | 1613 ft | 12 kts | 179° |
| 2026-04-26 00:15 | -31.31417 | -64.20852 | 1613 ft | 10 kts | 208° |
| 2026-04-26 00:15 | -31.31460 | -64.20901 | 1613 ft | 8 kts | 248° |
| 2026-04-26 00:16 | -31.31464 | -64.20974 | 1613 ft | 8 kts | 269° |
| 2026-04-26 00:16 | -31.31485 | -64.21042 | 1613 ft | 5 kts | 228° |
| 2026-04-26 00:16 | -31.31520 | -64.21072 | 1613 ft | 7 kts | 198° |
| 2026-04-26 00:16 | -31.31552 | -64.21090 | 1613 ft | 4 kts | 225° |
| 2026-04-26 00:17 | -31.31570 | -64.21130 | 1613 ft | 6 kts | 247° |
| 2026-04-26 00:17 | -31.31584 | -64.21172 | 1613 ft | 4 kts | 251° |
| 2026-04-26 00:17 | -31.31587 | -64.21182 | 1613 ft | 0 kts | 251° |